createdAt,value
2018-07-05T00:00:10.963Z,20.33
2018-07-05T00:01:11.062Z,20.39
2018-07-05T00:12:55.008Z,20.08
2018-07-05T00:13:55.114Z,20.05
2018-07-05T00:14:55.244Z,20.10
2018-07-05T00:15:55.337Z,20.16
2018-07-05T00:16:55.460Z,20.06
2018-07-05T00:17:55.539Z,20.06
2018-07-05T00:18:55.636Z,19.98
2018-07-05T00:19:55.788Z,19.90
2018-07-05T00:20:55.779Z,19.93
2018-07-05T00:21:55.890Z,19.95
2018-07-05T00:22:55.992Z,19.97
2018-07-05T00:23:56.089Z,19.94
2018-07-05T00:24:56.206Z,19.95
2018-07-05T00:25:56.318Z,19.88
2018-07-05T00:26:56.415Z,19.88
2018-07-05T00:27:56.485Z,19.86
2018-07-05T00:28:56.580Z,19.83
2018-07-05T00:29:56.722Z,19.83
2018-07-05T00:30:56.805Z,19.73
2018-07-05T00:31:57.071Z,19.69
2018-07-05T00:32:57.077Z,19.65
2018-07-05T00:33:57.188Z,19.60
2018-07-05T00:34:57.302Z,19.63
2018-07-05T00:35:57.392Z,19.68
2018-07-05T00:36:57.496Z,19.70
2018-07-05T00:37:57.598Z,19.60
2018-07-05T00:38:57.695Z,19.60
2018-07-05T00:39:57.844Z,19.61
2018-07-05T00:40:57.945Z,19.66
2018-07-05T00:41:58.048Z,19.61
2018-07-05T00:42:58.159Z,19.63
2018-07-05T00:43:58.269Z,19.61
2018-07-05T00:44:58.370Z,19.72
2018-07-05T00:45:58.461Z,19.63
2018-07-05T00:46:58.560Z,19.60
2018-07-05T00:47:58.660Z,19.60
2018-07-05T00:48:58.794Z,19.65
2018-07-05T00:49:58.859Z,19.55
2018-07-05T00:50:58.962Z,19.72
2018-07-05T00:51:59.047Z,19.61
2018-07-05T00:52:59.151Z,19.54
2018-07-05T00:53:59.260Z,19.60
2018-07-05T00:54:59.372Z,19.55
2018-07-05T00:55:59.469Z,19.42
2018-07-05T00:56:59.566Z,19.40
2018-07-05T00:57:59.666Z,19.43
2018-07-05T00:58:59.782Z,19.42
2018-07-05T00:59:59.871Z,19.42
2018-07-05T01:00:59.973Z,19.51
2018-07-05T01:02:00.060Z,19.40
2018-07-05T01:03:00.163Z,19.39
2018-07-05T01:04:00.271Z,19.40
2018-07-05T01:05:00.376Z,19.40
2018-07-05T01:06:00.466Z,19.40
2018-07-05T01:07:00.572Z,19.39
2018-07-05T01:08:00.671Z,19.46
2018-07-05T01:09:00.811Z,19.50
2018-07-05T01:10:00.911Z,19.40
2018-07-05T01:11:01.001Z,19.36
2018-07-05T01:12:01.106Z,19.25
2018-07-05T01:13:01.204Z,19.36
2018-07-05T01:14:01.312Z,19.23
2018-07-05T01:15:01.412Z,19.32
2018-07-05T01:16:01.494Z,19.24
2018-07-05T01:17:01.600Z,19.35
2018-07-05T01:18:01.699Z,19.25
2018-07-05T01:19:01.798Z,19.15
2018-07-05T01:20:01.894Z,19.21
2018-07-05T01:21:01.981Z,19.13
2018-07-05T01:22:02.088Z,19.13
2018-07-05T01:23:02.203Z,19.17
2018-07-05T01:24:02.305Z,19.06
2018-07-05T01:25:02.406Z,19.06
2018-07-05T01:26:02.495Z,19.13
2018-07-05T01:27:02.617Z,19.01
2018-07-05T01:28:02.707Z,18.99
2018-07-05T01:29:02.814Z,18.98
2018-07-05T01:30:02.925Z,18.94
2018-07-05T01:31:03.024Z,19.05
2018-07-05T01:32:03.122Z,18.99
2018-07-05T01:33:03.231Z,18.87
2018-07-05T01:34:03.327Z,18.83
2018-07-05T01:35:03.434Z,18.94
2018-07-05T01:36:03.538Z,18.95
2018-07-05T01:37:03.636Z,19.05
2018-07-05T01:38:03.731Z,18.94
2018-07-05T01:39:03.848Z,18.90
2018-07-05T01:40:03.940Z,18.94
2018-07-05T01:41:04.098Z,18.94
2018-07-05T01:42:04.145Z,18.91
2018-07-05T01:43:04.243Z,18.91
2018-07-05T01:44:04.342Z,18.90
2018-07-05T01:45:04.440Z,18.83
2018-07-05T01:46:04.542Z,18.90
2018-07-05T01:47:04.644Z,18.87
2018-07-05T01:48:04.750Z,18.91
2018-07-05T01:49:04.852Z,18.84
2018-07-05T01:50:04.954Z,18.83
2018-07-05T01:51:05.049Z,18.80
2018-07-05T01:52:05.161Z,18.84
2018-07-05T01:53:05.257Z,18.84
2018-07-05T01:54:05.346Z,18.82
2018-07-05T01:55:05.435Z,18.67
2018-07-05T01:56:05.522Z,18.79
2018-07-05T01:57:05.640Z,18.74
2018-07-05T01:58:05.745Z,18.64
2018-07-05T01:59:05.837Z,18.61
2018-07-05T02:00:05.931Z,18.67
2018-07-05T02:01:06.042Z,18.65
2018-07-05T02:02:06.137Z,18.64
2018-07-05T02:03:06.239Z,18.59
2018-07-05T02:04:06.375Z,18.55
2018-07-05T02:05:06.471Z,18.52
2018-07-05T02:06:06.571Z,18.50
2018-07-05T02:07:06.677Z,18.57
2018-07-05T02:08:06.768Z,18.52
2018-07-05T02:09:06.860Z,18.46
2018-07-05T02:10:06.985Z,18.55
2018-07-05T02:11:07.082Z,18.44
2018-07-05T02:12:07.183Z,18.58
2018-07-05T02:13:07.282Z,18.42
2018-07-05T02:14:07.383Z,18.49
2018-07-05T02:15:07.486Z,18.40
2018-07-05T02:16:07.585Z,18.42
2018-07-05T02:17:07.694Z,18.40
2018-07-05T02:18:07.816Z,18.39
2018-07-05T02:19:07.900Z,18.33
2018-07-05T02:20:07.999Z,18.37
2018-07-05T02:21:08.093Z,18.34
2018-07-05T02:22:08.193Z,18.34
2018-07-05T02:23:08.292Z,18.24
2018-07-05T02:24:08.407Z,18.21
2018-07-05T02:25:08.502Z,18.22
2018-07-05T02:26:08.602Z,18.22
2018-07-05T02:27:08.702Z,18.25
2018-07-05T02:28:08.799Z,18.22
2018-07-05T02:29:08.897Z,18.18
2018-07-05T02:30:08.997Z,18.18
2018-07-05T02:31:09.118Z,18.25
2018-07-05T02:32:09.217Z,18.25
2018-07-05T02:33:09.320Z,18.18
2018-07-05T02:34:09.417Z,18.19
2018-07-05T02:35:09.517Z,18.13
2018-07-05T02:36:09.616Z,18.02
2018-07-05T02:37:09.712Z,18.09
2018-07-05T02:38:09.837Z,18.07
2018-07-05T02:39:09.928Z,18.10
2018-07-05T02:40:10.027Z,18.06
2018-07-05T02:41:10.126Z,18.19
2018-07-05T02:42:10.228Z,18.18
2018-07-05T02:43:10.324Z,18.18
2018-07-05T02:44:10.421Z,18.18
2018-07-05T02:45:10.544Z,18.24
2018-07-05T02:46:10.646Z,18.21
2018-07-05T02:47:10.745Z,18.12
2018-07-05T02:48:10.847Z,18.17
2018-07-05T02:49:10.948Z,18.17
2018-07-05T02:50:11.041Z,18.10
2018-07-05T02:51:11.141Z,18.02
2018-07-05T02:52:11.256Z,17.97
2018-07-05T02:53:11.355Z,18.13
2018-07-05T02:54:11.457Z,18.07
2018-07-05T02:55:11.554Z,17.99
2018-07-05T02:56:11.654Z,18.04
2018-07-05T02:57:11.752Z,18.00
2018-07-05T02:58:11.852Z,18.04
2018-07-05T02:59:11.971Z,18.10
2018-07-05T03:00:12.067Z,18.00
2018-07-05T03:01:12.168Z,18.03
2018-07-05T03:02:12.266Z,18.04
2018-07-05T03:03:12.366Z,18.04
2018-07-05T03:04:12.467Z,17.97
2018-07-05T03:05:12.567Z,18.03
2018-07-05T03:06:12.682Z,18.03
2018-07-05T03:07:12.781Z,17.95
2018-07-05T03:08:12.879Z,17.92
2018-07-05T03:09:12.980Z,17.81
2018-07-05T03:10:13.083Z,17.84
2018-07-05T03:11:13.178Z,17.85
2018-07-05T03:12:13.283Z,17.82
2018-07-05T03:13:13.393Z,17.85
2018-07-05T03:14:13.492Z,17.85
2018-07-05T03:15:13.593Z,17.76
2018-07-05T03:16:13.693Z,17.74
2018-07-05T03:17:13.792Z,17.79
2018-07-05T03:18:13.896Z,17.81
2018-07-05T03:19:13.989Z,17.76
2018-07-05T03:20:14.104Z,17.74
2018-07-05T03:21:14.203Z,17.76
2018-07-05T03:22:14.302Z,17.76
2018-07-05T03:23:14.404Z,17.74
2018-07-05T03:24:14.503Z,17.70
2018-07-05T03:25:14.602Z,17.74
2018-07-05T03:26:14.699Z,17.73
2018-07-05T03:27:14.816Z,17.70
2018-07-05T03:28:14.916Z,17.73
2018-07-05T03:29:15.017Z,17.73
2018-07-05T03:30:15.115Z,17.73
2018-07-05T03:31:15.217Z,17.70
2018-07-05T03:32:15.312Z,17.74
2018-07-05T03:33:15.411Z,17.78
2018-07-05T03:34:15.526Z,17.73
2018-07-05T03:35:15.627Z,17.79
2018-07-05T03:36:15.727Z,17.71
2018-07-05T03:37:15.825Z,17.81
2018-07-05T03:38:15.927Z,17.78
2018-07-05T03:39:16.025Z,17.82
2018-07-05T03:40:16.127Z,17.76
2018-07-05T03:41:16.244Z,17.85
2018-07-05T03:42:16.339Z,17.78
2018-07-05T03:43:16.437Z,17.78
2018-07-05T03:44:16.539Z,17.87
2018-07-05T03:45:16.639Z,17.76
2018-07-05T03:46:16.737Z,17.82
2018-07-05T03:47:16.835Z,17.76
2018-07-05T03:48:16.954Z,17.73
2018-07-05T03:49:17.055Z,17.73
2018-07-05T03:50:17.152Z,17.78
2018-07-05T03:51:17.251Z,17.79
2018-07-05T03:52:17.354Z,17.89
2018-07-05T03:53:17.450Z,17.76
2018-07-05T03:54:17.548Z,17.76
2018-07-05T03:55:17.665Z,17.74
2018-07-05T03:56:17.765Z,17.79
2018-07-05T03:57:17.863Z,17.69
2018-07-05T03:58:17.962Z,17.64
2018-07-05T03:59:18.061Z,17.70
2018-07-05T04:00:18.160Z,17.74
2018-07-05T04:01:18.262Z,17.66
2018-07-05T04:02:18.376Z,17.69
2018-07-05T04:03:18.481Z,17.67
2018-07-05T04:04:18.579Z,17.84
2018-07-05T04:05:18.675Z,17.74
2018-07-05T04:06:18.776Z,17.78
2018-07-05T04:07:18.872Z,17.76
2018-07-05T04:08:18.994Z,17.78
2018-07-05T04:09:19.090Z,17.79
2018-07-05T04:10:19.190Z,17.81
2018-07-05T04:11:19.291Z,17.88
2018-07-05T04:12:19.389Z,17.84
2018-07-05T04:13:19.492Z,17.91
2018-07-05T04:14:19.593Z,17.85
2018-07-05T04:15:19.691Z,17.92
2018-07-05T04:16:19.803Z,17.87
2018-07-05T04:17:19.906Z,17.87
2018-07-05T04:18:20.015Z,17.89
2018-07-05T04:19:20.105Z,17.91
2018-07-05T04:20:20.205Z,17.92
2018-07-05T04:21:20.306Z,17.97
2018-07-05T04:22:20.407Z,17.95
2018-07-05T04:23:20.523Z,17.91
2018-07-05T04:24:20.621Z,17.97
2018-07-05T04:25:20.722Z,18.06
2018-07-05T04:26:20.832Z,17.97
2018-07-05T04:27:20.928Z,18.03
2018-07-05T04:28:21.043Z,18.06
2018-07-05T04:29:21.146Z,18.06
2018-07-05T04:30:21.273Z,18.07
2018-07-05T04:31:21.389Z,18.17
2018-07-05T04:32:21.500Z,18.09
2018-07-05T04:33:21.594Z,18.13
2018-07-05T04:34:21.705Z,18.17
2018-07-05T04:35:21.852Z,18.15
2018-07-05T04:36:21.943Z,18.25
2018-07-05T04:37:22.070Z,18.22
2018-07-05T04:38:22.259Z,18.19
2018-07-05T04:39:22.233Z,18.28
2018-07-05T04:40:22.319Z,18.34
2018-07-05T04:41:22.425Z,18.33
2018-07-05T04:42:22.536Z,18.24
2018-07-05T04:43:22.990Z,18.24
2018-07-05T04:44:22.732Z,18.28
2018-07-05T04:45:22.856Z,18.28
2018-07-05T04:46:22.948Z,18.36
2018-07-05T04:47:23.096Z,18.37
2018-07-05T04:48:23.226Z,18.37
2018-07-05T04:49:23.325Z,18.40
2018-07-05T04:50:23.412Z,18.39
2018-07-05T04:51:23.519Z,18.49
2018-07-05T04:52:23.631Z,18.54
2018-07-05T04:53:23.738Z,18.46
2018-07-05T04:54:23.848Z,18.54
2018-07-05T04:55:23.996Z,18.61
2018-07-05T04:56:24.051Z,18.58
2018-07-05T04:57:24.154Z,18.57
2018-07-05T04:58:24.256Z,18.68
2018-07-05T04:59:24.402Z,18.76
2018-07-05T05:00:24.395Z,18.68
2018-07-05T05:01:24.562Z,18.80
2018-07-05T05:02:24.689Z,18.70
2018-07-05T05:03:24.825Z,18.61
2018-07-05T05:04:24.949Z,18.58
2018-07-05T05:05:25.037Z,18.62
2018-07-05T05:06:25.139Z,18.64
2018-07-05T05:07:25.247Z,18.76
2018-07-05T05:08:25.409Z,18.83
2018-07-05T05:09:25.421Z,18.94
2018-07-05T05:10:25.505Z,18.92
2018-07-05T05:11:25.607Z,18.95
2018-07-05T05:12:25.725Z,18.99
2018-07-05T05:13:25.839Z,18.99
2018-07-05T05:14:25.952Z,19.14
2018-07-05T05:15:26.054Z,19.14
2018-07-05T05:16:26.208Z,19.23
2018-07-05T05:17:26.315Z,19.29
2018-07-05T05:18:26.418Z,19.25
2018-07-05T05:19:26.663Z,19.38
2018-07-05T05:20:26.772Z,19.36
2018-07-05T05:21:26.736Z,19.42
2018-07-05T05:22:26.842Z,19.53
2018-07-05T05:23:26.977Z,19.57
2018-07-05T05:24:27.085Z,19.61
2018-07-05T05:25:27.176Z,19.72
2018-07-05T05:26:27.272Z,19.95
2018-07-05T05:27:27.413Z,20.46
2018-07-05T05:28:27.497Z,21.02
2018-07-05T05:29:27.595Z,21.75
2018-07-05T05:30:27.702Z,22.22
2018-07-05T05:31:27.811Z,22.67
2018-07-05T05:32:27.911Z,23.19
2018-07-05T05:33:28.029Z,23.50
2018-07-05T05:34:28.119Z,23.86
2018-07-05T05:35:28.214Z,24.34
2018-07-05T05:36:28.317Z,24.49
2018-07-05T05:37:28.404Z,24.94
2018-07-05T05:38:28.503Z,25.27
2018-07-05T05:39:28.595Z,25.46
2018-07-05T05:40:28.726Z,25.67
2018-07-05T05:41:28.815Z,26.05
2018-07-05T05:42:28.916Z,26.36
2018-07-05T05:43:29.038Z,26.49
2018-07-05T05:44:29.148Z,26.68
2018-07-05T05:45:29.252Z,27.01
2018-07-05T05:46:29.348Z,27.17
2018-07-05T05:47:29.463Z,27.26
2018-07-05T05:48:29.581Z,27.51
2018-07-05T05:49:29.676Z,27.71
2018-07-05T05:50:29.781Z,27.92
2018-07-05T05:51:29.885Z,28.03
2018-07-05T05:52:29.988Z,28.10
2018-07-05T05:53:30.109Z,28.26
2018-07-05T05:54:30.221Z,28.50
2018-07-05T05:55:30.378Z,28.54
2018-07-05T05:56:30.438Z,28.63
2018-07-05T05:57:30.545Z,28.80
2018-07-05T05:58:30.642Z,28.93
2018-07-05T05:59:30.737Z,29.00
2018-07-05T06:00:30.884Z,29.08
2018-07-05T06:01:30.967Z,29.28
2018-07-05T06:02:31.087Z,29.29
2018-07-05T06:03:31.202Z,29.25
2018-07-05T06:04:31.305Z,29.37
2018-07-05T06:05:31.420Z,29.33
2018-07-05T06:06:31.531Z,29.43
2018-07-05T06:07:31.628Z,29.43
2018-07-05T06:08:31.766Z,29.43
2018-07-05T06:09:31.873Z,29.53
2018-07-05T06:10:31.981Z,29.52
2018-07-05T06:11:32.094Z,29.59
2018-07-05T06:12:32.195Z,29.59
2018-07-05T06:13:32.324Z,29.71
2018-07-05T06:14:32.435Z,29.49
2018-07-05T06:15:32.539Z,29.57
2018-07-05T06:16:32.647Z,29.55
2018-07-05T06:17:32.758Z,29.55
2018-07-05T06:18:32.922Z,29.53
2018-07-05T06:19:32.980Z,29.37
2018-07-05T06:20:33.096Z,29.33
2018-07-05T06:21:33.203Z,29.28
2018-07-05T06:22:33.318Z,29.19
2018-07-05T06:23:33.425Z,29.06
2018-07-05T06:24:33.543Z,28.90
2018-07-05T06:25:33.664Z,28.54
2018-07-05T06:26:33.755Z,28.56
2018-07-05T06:27:33.867Z,28.48
2018-07-05T06:28:33.965Z,28.25
2018-07-05T06:29:34.081Z,28.14
2018-07-05T06:30:34.191Z,27.95
2018-07-05T06:31:34.297Z,27.77
2018-07-05T06:32:34.411Z,27.73
2018-07-05T06:33:34.521Z,27.57
2018-07-05T06:34:34.629Z,27.46
2018-07-05T06:35:34.755Z,27.31
2018-07-05T06:36:34.870Z,27.16
2018-07-05T06:37:34.984Z,27.06
2018-07-05T06:38:35.090Z,27.02
2018-07-05T06:39:35.244Z,27.02
2018-07-05T06:40:35.345Z,27.02
2018-07-05T06:41:35.446Z,26.87
2018-07-05T06:42:35.580Z,26.86
2018-07-05T06:43:35.687Z,26.74
2018-07-05T06:44:35.790Z,26.74
2018-07-05T06:45:35.905Z,26.59
2018-07-05T06:46:36.012Z,26.65
2018-07-05T06:47:36.120Z,26.58
2018-07-05T06:48:36.235Z,26.68
2018-07-05T06:49:36.333Z,26.59
2018-07-05T06:50:36.437Z,26.72
2018-07-05T06:51:36.530Z,26.69
2018-07-05T06:52:36.640Z,26.58
2018-07-05T06:53:36.745Z,26.62
2018-07-05T06:54:36.849Z,26.54
2018-07-05T06:55:36.959Z,26.39
2018-07-05T06:56:37.070Z,26.32
2018-07-05T06:57:37.209Z,26.46
2018-07-05T06:58:37.315Z,26.47
2018-07-05T06:59:37.420Z,26.42
2018-07-05T07:00:37.529Z,26.47
2018-07-05T07:01:37.642Z,26.44
2018-07-05T07:02:37.781Z,26.47
2018-07-05T07:03:37.888Z,26.43
2018-07-05T07:04:37.992Z,26.43
2018-07-05T07:05:38.098Z,26.49
2018-07-05T07:06:38.204Z,26.35
2018-07-05T07:07:38.313Z,26.46
2018-07-05T07:08:38.423Z,26.46
2018-07-05T07:09:38.520Z,26.46
2018-07-05T07:10:38.621Z,26.46
2018-07-05T07:11:38.722Z,26.47
2018-07-05T07:12:38.832Z,26.58
2018-07-05T07:13:38.936Z,26.61
2018-07-05T07:14:39.045Z,26.65
2018-07-05T07:15:39.146Z,26.72
2018-07-05T07:16:39.242Z,26.73
2018-07-05T07:17:39.350Z,26.76
2018-07-05T07:18:39.456Z,26.76
2018-07-05T07:19:39.566Z,26.68
2018-07-05T07:20:39.673Z,26.77
2018-07-05T07:21:39.776Z,26.80
2018-07-05T07:22:39.885Z,26.74
2018-07-05T07:23:39.991Z,26.84
2018-07-05T07:24:40.097Z,26.94
2018-07-05T07:25:40.200Z,26.91
2018-07-05T07:26:40.308Z,26.92
2018-07-05T07:27:40.421Z,26.95
2018-07-05T07:28:40.525Z,26.99
2018-07-05T07:29:40.635Z,26.92
2018-07-05T07:30:40.739Z,26.86
2018-07-05T07:31:40.910Z,26.87
2018-07-05T07:32:40.951Z,26.92
2018-07-05T07:33:41.055Z,26.65
2018-07-05T07:34:41.160Z,26.76
2018-07-05T07:35:41.267Z,26.74
2018-07-05T07:36:41.370Z,26.83
2018-07-05T07:37:41.554Z,26.94
2018-07-05T07:38:41.575Z,26.99
2018-07-05T07:39:41.679Z,26.89
2018-07-05T07:40:41.785Z,26.99
2018-07-05T07:41:41.891Z,26.98
2018-07-05T07:42:41.994Z,27.02
2018-07-05T07:43:42.100Z,27.02
2018-07-05T07:44:42.207Z,27.06
2018-07-05T07:45:42.333Z,27.16
2018-07-05T07:46:42.425Z,27.24
2018-07-05T07:47:42.532Z,27.28
2018-07-05T07:48:42.635Z,27.38
2018-07-05T07:49:42.741Z,27.50
2018-07-05T07:50:42.849Z,27.58
2018-07-05T07:51:42.957Z,27.51
2018-07-05T07:52:43.073Z,27.47
2018-07-05T07:53:43.181Z,27.62
2018-07-05T07:54:43.295Z,27.57
2018-07-05T07:55:43.393Z,27.71
2018-07-05T07:56:43.502Z,27.82
2018-07-05T07:57:43.609Z,27.84
2018-07-05T07:58:43.717Z,27.91
2018-07-05T07:59:43.823Z,28.03
2018-07-05T08:00:43.920Z,27.94
2018-07-05T08:01:44.024Z,28.10
2018-07-05T08:02:44.130Z,28.06
2018-07-05T08:03:44.237Z,28.14
2018-07-05T08:04:44.345Z,28.25
2018-07-05T08:05:44.451Z,28.13
2018-07-05T08:06:44.563Z,28.11
2018-07-05T08:07:44.666Z,28.23
2018-07-05T08:08:44.770Z,28.17
2018-07-05T08:09:44.879Z,28.13
2018-07-05T08:10:44.988Z,27.88
2018-07-05T08:11:45.089Z,27.70
2018-07-05T08:12:45.196Z,27.79
2018-07-05T08:13:45.304Z,27.38
2018-07-05T08:14:45.413Z,27.43
2018-07-05T08:15:45.520Z,27.67
2018-07-05T08:16:45.624Z,27.67
2018-07-05T08:17:45.732Z,28.01
2018-07-05T08:18:45.842Z,28.09
2018-07-05T08:19:45.950Z,28.17
2018-07-05T08:20:46.057Z,28.33
2018-07-05T08:21:46.167Z,28.36
2018-07-05T08:22:46.264Z,28.50
2018-07-05T08:23:46.373Z,28.54
2018-07-05T08:24:46.481Z,28.58
2018-07-05T08:25:46.589Z,28.73
2018-07-05T08:26:46.697Z,28.78
2018-07-05T08:27:46.804Z,28.78
2018-07-05T08:28:46.908Z,28.82
2018-07-05T08:29:47.002Z,28.87
2018-07-05T08:30:47.134Z,28.87
2018-07-05T08:31:47.206Z,28.97
2018-07-05T08:32:47.348Z,29.06
2018-07-05T08:33:47.420Z,28.97
2018-07-05T08:34:47.529Z,29.07
2018-07-05T08:35:47.635Z,29.10
2018-07-05T08:36:47.753Z,29.19
2018-07-05T08:37:47.896Z,29.25
2018-07-05T08:38:47.965Z,29.29
2018-07-05T08:39:48.078Z,29.41
2018-07-05T08:40:48.183Z,29.38
2018-07-05T08:41:48.288Z,29.56
2018-07-05T08:42:48.396Z,29.56
2018-07-05T08:43:48.507Z,29.52
2018-07-05T08:44:48.616Z,29.52
2018-07-05T08:45:48.712Z,29.72
2018-07-05T08:46:48.823Z,29.78
2018-07-05T08:47:48.926Z,29.86
2018-07-05T08:48:49.033Z,29.96
2018-07-05T08:49:49.138Z,30.03
2018-07-05T08:50:49.246Z,30.15
2018-07-05T08:51:49.357Z,30.23
2018-07-05T08:52:49.464Z,30.37
2018-07-05T08:53:49.573Z,30.37
2018-07-05T08:54:49.681Z,30.33
2018-07-05T08:55:49.789Z,30.56
2018-07-05T08:56:49.897Z,30.64
2018-07-05T08:57:50.005Z,30.67
2018-07-05T08:58:50.113Z,30.64
2018-07-05T08:59:50.219Z,30.69
2018-07-05T09:00:50.326Z,30.72
2018-07-05T09:01:50.437Z,30.80
2018-07-05T09:02:50.544Z,30.86
2018-07-05T09:03:50.654Z,31.01
2018-07-05T09:04:50.766Z,31.04
2018-07-05T09:05:50.869Z,31.11
2018-07-05T09:06:50.964Z,31.27
2018-07-05T09:07:51.073Z,31.48
2018-07-05T09:08:51.180Z,31.53
2018-07-05T09:09:51.281Z,31.77
2018-07-05T09:10:51.398Z,31.75
2018-07-05T09:11:51.547Z,31.72
2018-07-05T09:12:51.611Z,31.95
2018-07-05T09:13:51.736Z,31.99
2018-07-05T09:14:51.848Z,31.99
2018-07-05T09:15:51.964Z,32.20
2018-07-05T09:16:52.109Z,31.31
2018-07-05T09:17:52.370Z,30.69
2018-07-05T09:18:52.270Z,30.69
2018-07-05T09:19:52.375Z,30.76
2018-07-05T09:20:52.645Z,31.11
2018-07-05T09:21:52.698Z,31.31
2018-07-05T09:22:52.707Z,31.49
2018-07-05T09:23:52.852Z,31.61
2018-07-05T09:24:53.093Z,31.72
2018-07-05T09:25:53.071Z,31.85
2018-07-05T09:26:53.202Z,32.00
2018-07-05T09:27:53.279Z,32.13
2018-07-05T09:28:53.385Z,32.25
2018-07-05T09:29:53.492Z,32.30
2018-07-05T09:30:53.589Z,32.24
2018-07-05T09:31:53.696Z,32.25
2018-07-05T09:32:53.839Z,32.25
2018-07-05T09:33:53.953Z,32.22
2018-07-05T09:34:54.076Z,32.14
2018-07-05T09:35:54.192Z,31.64
2018-07-05T09:36:54.298Z,31.46
2018-07-05T09:37:54.390Z,31.53
2018-07-05T09:38:54.505Z,31.45
2018-07-05T09:39:54.628Z,31.28
2018-07-05T09:40:54.750Z,31.17
2018-07-05T09:41:54.856Z,31.13
2018-07-05T09:42:54.965Z,31.09
2018-07-05T09:43:55.092Z,30.67
2018-07-05T09:44:55.209Z,30.15
2018-07-05T09:45:55.370Z,29.87
2018-07-05T09:46:55.481Z,30.11
2018-07-05T09:47:55.574Z,30.00
2018-07-05T09:48:55.699Z,29.71
2018-07-05T09:49:55.831Z,29.75
2018-07-05T09:50:55.936Z,29.68
2018-07-05T09:51:56.046Z,29.29
2018-07-05T09:52:56.186Z,29.43
2018-07-05T09:53:56.293Z,29.66
2018-07-05T09:54:56.411Z,29.77
2018-07-05T09:55:56.523Z,29.72
2018-07-05T09:56:56.631Z,29.53
2018-07-05T09:57:56.788Z,29.81
2018-07-05T09:58:56.864Z,29.97
2018-07-05T09:59:56.973Z,30.19
2018-07-05T10:00:57.068Z,30.37
2018-07-05T10:01:57.204Z,30.54
2018-07-05T10:02:57.296Z,30.71
2018-07-05T10:03:57.413Z,30.96
2018-07-05T10:04:57.542Z,31.11
2018-07-05T10:05:57.662Z,31.20
2018-07-05T10:06:57.786Z,31.42
2018-07-05T10:07:57.887Z,31.30
2018-07-05T10:08:57.985Z,31.12
2018-07-05T10:09:58.129Z,31.06
2018-07-05T10:10:58.240Z,31.17
2018-07-05T10:11:58.345Z,31.18
2018-07-05T10:12:58.546Z,31.35
2018-07-05T10:13:58.646Z,31.45
2018-07-05T10:14:58.678Z,31.68
2018-07-05T10:15:58.789Z,31.92
2018-07-05T10:16:58.915Z,32.02
2018-07-05T10:17:59.023Z,32.02
2018-07-05T10:18:59.139Z,31.82
2018-07-05T10:19:59.250Z,31.70
2018-07-05T10:20:59.359Z,31.54
2018-07-05T10:21:59.478Z,31.77
2018-07-05T10:22:59.590Z,31.73
2018-07-05T10:23:59.713Z,31.76
2018-07-05T10:24:59.822Z,31.76
2018-07-05T10:25:59.927Z,31.76
2018-07-05T10:27:00.048Z,31.95
2018-07-05T10:28:00.136Z,31.96
2018-07-05T10:29:00.261Z,31.36
2018-07-05T10:30:00.369Z,31.18
2018-07-05T10:31:00.476Z,31.11
2018-07-05T10:32:00.587Z,31.35
2018-07-05T10:33:00.750Z,31.49
2018-07-05T10:34:00.815Z,31.65
2018-07-05T10:35:00.933Z,31.87
2018-07-05T10:36:01.059Z,32.03
2018-07-05T10:37:01.167Z,32.14
2018-07-05T10:38:01.280Z,32.24
2018-07-05T10:39:01.386Z,32.37
2018-07-05T10:40:01.509Z,32.44
2018-07-05T10:41:01.618Z,32.49
2018-07-05T10:42:01.730Z,32.64
2018-07-05T10:43:01.871Z,32.73
2018-07-05T10:44:01.966Z,32.54
2018-07-05T10:45:02.087Z,32.44
2018-07-05T10:46:02.258Z,32.47
2018-07-05T10:47:02.293Z,32.49
2018-07-05T10:48:02.393Z,32.66
2018-07-05T10:49:02.497Z,32.86
2018-07-05T10:50:02.597Z,33.04
2018-07-05T10:51:02.715Z,33.19
2018-07-05T10:52:02.837Z,33.20
2018-07-05T10:53:02.951Z,33.27
2018-07-05T10:54:03.049Z,33.46
2018-07-05T10:55:03.177Z,33.48
2018-07-05T10:56:03.279Z,33.52
2018-07-05T10:57:03.405Z,33.20
2018-07-05T10:58:03.526Z,33.20
2018-07-05T10:59:03.689Z,33.30
2018-07-05T11:00:03.819Z,33.41
2018-07-05T11:01:03.964Z,33.45
2018-07-05T11:02:04.041Z,33.26
2018-07-05T11:03:04.140Z,33.46
2018-07-05T11:04:04.254Z,33.29
2018-07-05T11:05:04.355Z,33.34
2018-07-05T11:06:04.474Z,33.29
2018-07-05T11:07:04.586Z,33.36
2018-07-05T11:08:04.693Z,33.55
2018-07-05T11:09:04.804Z,33.70
2018-07-05T11:10:04.912Z,33.94
2018-07-05T11:11:05.028Z,33.92
2018-07-05T11:12:05.131Z,33.90
2018-07-05T11:13:05.248Z,34.08
2018-07-05T11:14:05.358Z,34.20
2018-07-05T11:15:05.472Z,34.17
2018-07-05T11:16:05.582Z,34.16
2018-07-05T11:17:05.690Z,33.92
2018-07-05T11:18:05.801Z,33.83
2018-07-05T11:19:05.908Z,34.04
2018-07-05T11:20:06.016Z,34.04
2018-07-05T11:21:06.152Z,34.24
2018-07-05T11:22:06.256Z,34.19
2018-07-05T11:23:06.362Z,33.83
2018-07-05T11:24:06.461Z,33.64
2018-07-05T11:25:06.575Z,33.43
2018-07-05T11:26:06.681Z,33.55
2018-07-05T11:27:06.797Z,33.60
2018-07-05T11:28:06.910Z,33.36
2018-07-05T11:29:07.080Z,33.33
2018-07-05T11:30:07.102Z,33.20
2018-07-05T11:31:07.172Z,33.04
2018-07-05T11:32:07.290Z,32.93
2018-07-05T11:33:07.410Z,33.03
2018-07-05T11:34:07.519Z,33.03
2018-07-05T11:35:07.632Z,33.07
2018-07-05T11:36:07.743Z,32.85
2018-07-05T11:37:07.852Z,32.49
2018-07-05T11:38:07.964Z,32.62
2018-07-05T11:39:08.080Z,32.57
2018-07-05T11:40:08.186Z,32.59
2018-07-05T11:41:08.304Z,32.84
2018-07-05T11:42:08.414Z,32.81
2018-07-05T11:43:08.525Z,32.99
2018-07-05T11:44:08.637Z,33.14
2018-07-05T11:45:08.746Z,33.41
2018-07-05T11:46:08.856Z,33.46
2018-07-05T11:47:08.965Z,33.42
2018-07-05T11:48:09.074Z,33.41
2018-07-05T11:49:09.183Z,33.07
2018-07-05T11:50:09.342Z,32.85
2018-07-05T11:51:09.455Z,31.46
2018-07-05T11:52:09.567Z,30.75
2018-07-05T11:53:09.677Z,30.71
2018-07-05T11:54:09.788Z,30.56
2018-07-05T11:55:09.902Z,30.56
2018-07-05T11:56:10.012Z,30.71
2018-07-05T11:57:10.123Z,30.69
2018-07-05T11:58:10.234Z,30.43
2018-07-05T11:59:10.351Z,30.45
2018-07-05T12:00:10.458Z,30.52
2018-07-05T12:01:10.569Z,30.67
2018-07-05T12:02:10.683Z,30.93
2018-07-05T12:03:10.786Z,30.96
2018-07-05T12:04:10.932Z,30.91
2018-07-05T12:05:11.013Z,31.06
2018-07-05T12:06:11.123Z,30.75
2018-07-05T12:07:11.234Z,30.76
2018-07-05T12:08:11.344Z,30.99
2018-07-05T12:09:11.453Z,30.93
2018-07-05T12:10:11.574Z,30.93
2018-07-05T12:11:11.683Z,30.71
2018-07-05T12:12:11.796Z,30.49
2018-07-05T12:13:11.902Z,30.71
2018-07-05T12:14:12.015Z,30.83
2018-07-05T12:15:12.124Z,31.05
2018-07-05T12:16:12.235Z,31.06
2018-07-05T12:17:12.344Z,30.96
2018-07-05T12:18:12.455Z,31.09
2018-07-05T12:19:12.563Z,31.17
2018-07-05T12:20:12.672Z,30.93
2018-07-05T12:21:12.781Z,30.71
2018-07-05T12:22:12.893Z,30.80
2018-07-05T12:23:13.003Z,30.80
2018-07-05T12:24:13.155Z,30.99
2018-07-05T12:25:13.224Z,31.02
2018-07-05T12:26:13.339Z,31.06
2018-07-05T12:27:13.447Z,30.93
2018-07-05T12:28:13.557Z,31.01
2018-07-05T12:29:13.707Z,31.13
2018-07-05T12:30:13.780Z,31.09
2018-07-05T12:31:13.889Z,31.20
2018-07-05T12:32:13.999Z,30.99
2018-07-05T12:33:14.111Z,30.71
2018-07-05T12:34:14.222Z,30.15
2018-07-05T12:35:14.332Z,29.44
2018-07-05T12:36:14.439Z,28.85
2018-07-05T12:37:14.550Z,28.44
2018-07-05T12:38:14.700Z,28.17
2018-07-05T12:39:14.770Z,27.99
2018-07-05T12:40:14.935Z,27.82
2018-07-05T12:41:14.991Z,27.39
2018-07-05T12:42:15.099Z,27.01
2018-07-05T12:43:15.208Z,26.95
2018-07-05T12:44:15.319Z,26.59
2018-07-05T12:45:15.425Z,26.76
2018-07-05T12:46:15.533Z,26.79
2018-07-05T12:47:15.648Z,26.73
2018-07-05T12:48:15.753Z,26.72
2018-07-05T12:49:15.857Z,26.73
2018-07-05T12:50:15.964Z,26.49
2018-07-05T12:51:16.068Z,26.32
2018-07-05T12:52:16.176Z,26.61
2018-07-05T12:53:16.289Z,26.64
2018-07-05T12:54:16.397Z,26.73
2018-07-05T12:55:16.505Z,26.73
2018-07-05T12:56:16.614Z,26.62
2018-07-05T12:57:16.721Z,26.32
2018-07-05T12:58:16.828Z,26.50
2018-07-05T12:59:16.935Z,26.32
2018-07-05T13:00:17.041Z,26.17
2018-07-05T13:01:17.148Z,26.02
2018-07-05T13:02:17.260Z,25.99
2018-07-05T13:03:17.364Z,26.22
2018-07-05T13:04:17.645Z,26.12